createdAt,value
2023-04-18T00:00:26.159Z,13.03
2023-04-18T00:03:30.029Z,13.06
2023-04-18T00:06:32.825Z,13.20
2023-04-18T00:09:35.273Z,13.04
2023-04-18T00:12:37.690Z,12.96
2023-04-18T00:15:41.815Z,12.96
2023-04-18T00:18:44.020Z,13.04
2023-04-18T00:21:47.100Z,13.07
2023-04-18T00:24:51.198Z,13.07
2023-04-18T00:27:53.425Z,13.09
2023-04-18T00:30:55.638Z,13.10
2023-04-18T00:33:58.710Z,13.09
2023-04-18T00:37:00.940Z,13.19
2023-04-18T00:40:05.686Z,13.14
2023-04-18T00:43:08.500Z,13.22
2023-04-18T00:46:12.142Z,13.22
2023-04-18T00:49:14.440Z,13.20
2023-04-18T00:52:17.744Z,13.23
2023-04-18T00:55:20.635Z,13.22
2023-04-18T00:58:24.134Z,13.32
2023-04-18T01:01:27.089Z,13.30
2023-04-18T01:04:29.924Z,13.12
2023-04-18T01:07:33.603Z,12.86
2023-04-18T01:10:36.467Z,12.79
2023-04-18T01:13:38.687Z,12.72
2023-04-18T01:16:40.917Z,12.73
2023-04-18T01:19:49.546Z,12.73
2023-04-18T01:22:52.494Z,12.69
2023-04-18T01:25:54.758Z,12.68
2023-04-18T01:28:57.067Z,12.71
2023-04-18T01:31:59.370Z,12.75
2023-04-18T01:35:01.894Z,12.85
2023-04-18T01:38:04.228Z,12.83
2023-04-18T01:41:06.537Z,12.91
2023-04-18T01:44:08.828Z,12.86
2023-04-18T01:47:11.083Z,12.96
2023-04-18T01:50:13.383Z,13.10
2023-04-18T01:53:18.132Z,13.09
2023-04-18T01:56:21.598Z,13.10
2023-04-18T01:59:23.902Z,13.06
2023-04-18T02:02:26.306Z,12.97
2023-04-18T02:05:28.631Z,13.12
2023-04-18T02:08:33.070Z,13.06
2023-04-18T02:11:35.381Z,13.02
2023-04-18T02:14:38.669Z,12.95
2023-04-18T02:17:41.722Z,12.73
2023-04-18T02:20:45.283Z,12.62
2023-04-18T02:23:47.582Z,12.61
2023-04-18T02:26:50.253Z,12.72
2023-04-18T02:29:54.205Z,12.81
2023-04-18T02:32:59.307Z,12.88
2023-04-18T02:36:01.906Z,12.91
2023-04-18T02:39:04.136Z,12.95
2023-04-18T02:42:06.370Z,13.03
2023-04-18T02:45:08.973Z,12.99
2023-04-18T02:48:11.245Z,12.92
2023-04-18T02:51:13.589Z,12.89
2023-04-18T02:54:16.210Z,12.86
2023-04-18T02:57:37.060Z,12.91
2023-04-18T03:00:59.686Z,12.85
2023-04-18T03:04:21.356Z,12.82
2023-04-18T03:07:35.876Z,12.79
2023-04-18T03:10:40.039Z,12.58
2023-04-18T03:13:42.974Z,12.58
2023-04-18T03:16:45.895Z,12.82
2023-04-18T03:19:51.871Z,12.88
2023-04-18T03:22:55.892Z,12.82
2023-04-18T03:26:01.062Z,12.71
2023-04-18T03:29:06.644Z,12.73
2023-04-18T03:32:09.041Z,12.73
2023-04-18T03:35:11.661Z,12.75
2023-04-18T03:38:14.603Z,12.78
2023-04-18T03:41:16.987Z,12.76
2023-04-18T03:44:19.356Z,12.68
2023-04-18T03:47:21.722Z,12.66
2023-04-18T03:50:30.232Z,12.65
2023-04-18T03:53:33.844Z,12.44
2023-04-18T03:56:36.298Z,12.32
2023-04-18T03:59:38.693Z,12.44
2023-04-18T04:02:42.221Z,12.48
2023-04-18T04:05:47.264Z,12.40
2023-04-18T04:08:51.241Z,12.31
2023-04-18T04:11:57.898Z,12.55
2023-04-18T04:15:02.087Z,12.42
2023-04-18T04:18:06.308Z,12.32
2023-04-18T04:21:11.337Z,12.27
2023-04-18T04:24:22.771Z,12.25
2023-04-18T04:27:26.966Z,12.24
2023-04-18T04:30:29.260Z,12.27
2023-04-18T04:33:33.378Z,12.38
2023-04-18T04:36:41.264Z,12.41
2023-04-18T04:39:46.256Z,12.41
2023-04-18T04:43:17.265Z,12.41
2023-04-18T04:46:23.284Z,12.24
2023-04-18T04:49:25.962Z,12.17
2023-04-18T04:52:28.238Z,12.10
2023-04-18T04:55:30.852Z,11.98
2023-04-18T04:58:33.693Z,11.91
2023-04-18T05:01:50.603Z,11.90
2023-04-18T05:04:52.883Z,12.08
2023-04-18T05:08:01.306Z,12.01
2023-04-18T05:11:06.551Z,11.95
2023-04-18T05:14:08.770Z,11.91
2023-04-18T05:17:11.157Z,11.93
2023-04-18T05:20:13.463Z,11.97
2023-04-18T05:23:16.309Z,12.08
2023-04-18T05:26:22.250Z,12.00
2023-04-18T05:29:31.036Z,11.94
2023-04-18T05:32:33.359Z,11.94
2023-04-18T05:35:38.411Z,11.91
2023-04-18T05:38:40.710Z,12.10
2023-04-18T05:41:43.185Z,12.10
2023-04-18T05:44:47.354Z,12.08
2023-04-18T05:47:49.664Z,12.34
2023-04-18T05:50:51.936Z,12.45
2023-04-18T05:53:57.464Z,12.64
2023-04-18T05:57:00.902Z,12.54
2023-04-18T06:00:14.222Z,12.65
2023-04-18T06:03:17.644Z,12.78
2023-04-18T06:06:27.023Z,12.76
2023-04-18T06:09:36.081Z,13.00
2023-04-18T06:12:48.067Z,13.12
2023-04-18T06:15:55.145Z,12.95
2023-04-18T06:19:12.073Z,12.69
2023-04-18T06:22:24.113Z,12.78
2023-04-18T06:25:28.835Z,13.00
2023-04-18T06:28:42.719Z,12.96
2023-04-18T06:31:51.318Z,13.09
2023-04-18T06:35:00.165Z,13.00
2023-04-18T06:38:07.708Z,13.03
2023-04-18T06:41:11.732Z,12.99
2023-04-18T06:44:16.205Z,13.23
2023-04-18T06:47:22.509Z,13.44
2023-04-18T06:50:25.338Z,13.55
2023-04-18T06:53:30.012Z,13.51
2023-04-18T06:56:34.389Z,12.89
2023-04-18T06:59:41.507Z,12.71
2023-04-18T07:02:44.255Z,12.69
2023-04-18T07:05:48.755Z,12.79
2023-04-18T07:08:53.354Z,12.78
2023-04-18T07:11:59.770Z,12.91
2023-04-18T07:15:03.465Z,12.99
2023-04-18T07:18:07.110Z,13.22
2023-04-18T07:21:12.565Z,13.37
2023-04-18T07:24:18.187Z,13.19
2023-04-18T07:27:23.180Z,13.26
2023-04-18T07:30:26.384Z,13.53
2023-04-18T07:33:31.911Z,13.73
2023-04-18T07:36:40.260Z,13.91
2023-04-18T07:39:42.503Z,14.01
2023-04-18T07:42:44.875Z,14.04
2023-04-18T07:45:47.168Z,14.14
2023-04-18T07:48:53.747Z,14.01
2023-04-18T07:51:56.549Z,13.48
2023-04-18T07:54:58.908Z,13.37
2023-04-18T07:58:01.416Z,13.42
2023-04-18T08:01:03.797Z,13.70
2023-04-18T08:04:06.609Z,13.86
2023-04-18T08:07:09.302Z,13.74
2023-04-18T08:10:11.843Z,14.14
2023-04-18T08:13:14.403Z,14.47
2023-04-18T08:16:19.364Z,14.43
2023-04-18T08:19:23.566Z,14.56
2023-04-18T08:22:30.097Z,14.90
2023-04-18T08:25:36.736Z,14.81
2023-04-18T08:28:46.557Z,14.96
2023-04-18T08:31:49.461Z,15.14
2023-04-18T08:34:56.198Z,15.01
2023-04-18T08:38:05.472Z,14.98
2023-04-18T08:41:14.497Z,15.45
2023-04-18T08:44:17.705Z,15.41
2023-04-18T08:47:23.977Z,15.55
2023-04-18T08:50:27.149Z,15.59
2023-04-18T08:53:35.849Z,15.48
2023-04-18T08:56:38.494Z,15.38
2023-04-18T08:59:46.693Z,15.10
2023-04-18T09:02:57.254Z,15.14
2023-04-18T09:06:30.442Z,15.31
2023-04-18T09:10:01.412Z,15.45
2023-04-18T09:13:04.437Z,14.73
2023-04-18T09:16:09.855Z,14.87
2023-04-18T09:19:19.441Z,14.98
2023-04-18T09:22:22.076Z,14.56
2023-04-18T09:25:36.108Z,14.57
2023-04-18T09:28:41.438Z,14.67
2023-04-18T09:32:02.319Z,14.22
2023-04-18T09:35:09.511Z,14.45
2023-04-18T09:38:11.856Z,14.43
2023-04-18T09:41:21.378Z,14.35
2023-04-18T09:44:25.705Z,14.21
2023-04-18T09:47:29.125Z,13.55
2023-04-18T09:50:55.805Z,13.17
2023-04-18T09:54:07.220Z,12.65
2023-04-18T09:57:14.830Z,12.55
2023-04-18T10:00:30.586Z,12.48
2023-04-18T10:03:46.353Z,12.40
2023-04-18T10:06:51.701Z,12.25
2023-04-18T10:09:54.689Z,12.27
2023-04-18T10:13:02.418Z,12.13
2023-04-18T10:16:06.840Z,12.24
2023-04-18T10:19:23.158Z,12.31
2023-04-18T10:22:29.193Z,12.41
2023-04-18T10:25:52.199Z,12.66
2023-04-18T10:29:00.153Z,12.82
2023-04-18T10:32:09.008Z,12.86
2023-04-18T10:35:11.574Z,13.12
2023-04-18T10:38:24.603Z,13.44
2023-04-18T10:41:32.385Z,13.50
2023-04-18T10:44:39.238Z,13.42
2023-04-18T11:07:19.970Z,14.02
2023-04-18T11:10:25.556Z,13.82
2023-04-18T11:13:33.429Z,14.28
2023-04-18T11:16:37.896Z,14.32
2023-04-18T11:19:41.348Z,14.40
2023-04-18T11:22:48.449Z,14.66
2023-04-18T11:25:54.387Z,14.76
2023-04-18T11:28:57.541Z,14.83
2023-04-18T11:32:00.157Z,15.04
2023-04-18T11:35:04.094Z,15.07
2023-04-18T11:38:08.125Z,15.34
2023-04-18T11:41:14.733Z,15.58
2023-04-18T11:44:27.278Z,15.82
2023-04-18T11:47:37.253Z,15.89
2023-04-18T11:50:40.154Z,16.02
2023-04-18T11:53:43.720Z,15.97
2023-04-18T11:56:48.721Z,16.05
2023-04-18T11:59:56.662Z,15.95
2023-04-18T12:03:01.945Z,16.05
2023-04-18T12:06:07.297Z,16.20
2023-04-18T12:09:14.210Z,16.33
2023-04-18T12:12:19.472Z,16.70
2023-04-18T12:15:28.196Z,16.98
2023-04-18T12:18:31.593Z,16.60
2023-04-18T12:21:33.981Z,16.63
2023-04-18T12:24:39.007Z,16.41
2023-04-18T12:27:58.551Z,16.21
2023-04-18T12:31:01.489Z,16.07
2023-04-18T12:34:03.793Z,15.88
2023-04-18T12:37:06.022Z,15.81
2023-04-18T12:40:08.952Z,15.37
2023-04-18T12:43:11.245Z,15.34
2023-04-18T12:46:13.588Z,15.21
2023-04-18T12:49:15.894Z,15.25
2023-04-18T12:52:18.262Z,15.42
2023-04-18T12:55:22.686Z,15.70
2023-04-18T12:58:25.048Z,15.72
2023-04-18T13:01:27.897Z,16.03
2023-04-18T13:04:30.435Z,16.31
2023-04-18T13:07:33.070Z,16.63
2023-04-18T13:10:35.493Z,16.58
2023-04-18T13:13:37.730Z,16.43
2023-04-18T13:16:42.530Z,16.14
2023-04-18T13:19:46.045Z,15.88
2023-04-18T13:22:48.500Z,15.79
2023-04-18T13:25:50.871Z,15.86
2023-04-18T13:28:53.117Z,15.62
2023-04-18T13:31:55.391Z,15.44
2023-04-18T13:34:57.642Z,15.25
2023-04-18T13:37:59.876Z,15.21
2023-04-18T13:41:12.380Z,15.16
2023-04-18T13:44:15.726Z,14.90
2023-04-18T13:47:19.399Z,14.83
2023-04-18T13:50:23.137Z,14.72
2023-04-18T13:53:25.531Z,14.77
2023-04-18T13:56:28.265Z,14.83
2023-04-18T13:59:33.380Z,14.87
2023-04-18T14:02:35.730Z,14.94
2023-04-18T14:05:38.289Z,14.84
2023-04-18T14:08:40.951Z,14.76
2023-04-18T14:11:43.655Z,14.70
2023-04-18T14:14:45.876Z,14.60
2023-04-18T14:17:48.485Z,14.53
2023-04-18T14:20:51.652Z,14.57
2023-04-18T14:23:54.067Z,14.52
2023-04-18T14:26:56.287Z,14.29
2023-04-18T14:29:58.508Z,14.19
2023-04-18T14:33:00.802Z,14.24
2023-04-18T14:36:03.537Z,14.25
2023-04-18T14:39:05.863Z,14.19
2023-04-18T14:42:08.110Z,14.16
2023-04-18T14:45:11.648Z,14.24
2023-04-18T14:48:14.018Z,14.32
2023-04-18T14:51:16.965Z,14.30
2023-04-18T14:54:19.351Z,14.37
2023-04-18T14:57:21.588Z,14.40
2023-04-18T15:00:23.879Z,14.47
2023-04-18T15:03:26.247Z,14.39
2023-04-18T15:06:28.582Z,14.36
2023-04-18T15:09:30.818Z,14.50
2023-04-18T15:12:33.146Z,14.43
2023-04-18T15:15:35.756Z,14.46
2023-04-18T15:18:38.130Z,14.42
2023-04-18T15:21:40.607Z,14.49
2023-04-18T15:24:42.836Z,14.35
2023-04-18T15:27:45.074Z,14.50
2023-04-18T15:30:47.616Z,14.55
2023-04-18T15:33:49.822Z,14.52
2023-04-18T15:36:52.145Z,14.45
2023-04-18T15:39:54.435Z,14.59
2023-04-18T15:42:57.901Z,14.56
2023-04-18T15:46:00.208Z,14.40
2023-04-18T15:49:10.211Z,14.55
2023-04-18T15:52:15.650Z,14.52
2023-04-18T15:55:17.956Z,14.60
2023-04-18T15:58:22.000Z,14.66
2023-04-18T16:01:24.282Z,14.46
2023-04-18T16:04:26.881Z,14.60
2023-04-18T16:07:29.187Z,14.69
2023-04-18T16:10:31.461Z,14.65
2023-04-18T16:13:38.232Z,14.69
2023-04-18T16:16:46.947Z,14.59
2023-04-18T16:19:49.231Z,14.67
2023-04-18T16:22:51.546Z,14.70
2023-04-18T16:25:55.313Z,14.72
2023-04-18T16:28:57.646Z,14.76
2023-04-18T16:31:59.951Z,14.80
2023-04-18T16:35:03.434Z,14.70
2023-04-18T16:38:05.930Z,14.65
2023-04-18T16:41:08.209Z,14.75
2023-04-18T16:44:10.568Z,14.62
2023-04-18T16:47:12.792Z,14.57
2023-04-18T16:50:15.502Z,14.47
2023-04-18T16:53:18.028Z,14.36
2023-04-18T16:56:20.373Z,14.15
2023-04-18T16:59:22.646Z,14.12
2023-04-18T17:02:25.123Z,13.95
2023-04-18T17:05:27.482Z,13.95
2023-04-18T17:08:31.995Z,13.91
2023-04-18T17:11:39.639Z,13.89
2023-04-18T17:14:42.118Z,13.95
2023-04-18T17:17:44.384Z,13.91
2023-04-18T17:20:46.710Z,13.86
2023-04-18T17:23:48.995Z,13.88
2023-04-18T17:26:51.280Z,13.84
2023-04-18T17:29:53.548Z,13.78
2023-04-18T17:32:56.113Z,13.65
2023-04-18T17:35:59.871Z,13.71
2023-04-18T17:39:08.237Z,13.70
2023-04-18T17:42:10.743Z,13.73
2023-04-18T17:45:13.047Z,13.50
2023-04-18T17:48:16.361Z,13.42
2023-04-18T17:51:19.474Z,13.57
2023-04-18T17:54:21.722Z,13.53
2023-04-18T17:57:26.079Z,13.44
2023-04-18T18:00:28.335Z,13.48
2023-04-18T18:03:30.953Z,13.50
2023-04-18T18:06:33.416Z,13.43
2023-04-18T18:09:35.883Z,13.33
2023-04-18T18:12:38.300Z,13.32
2023-04-18T18:15:40.651Z,13.27
2023-04-18T18:18:43.221Z,13.27
2023-04-18T18:21:45.538Z,13.39
2023-04-18T18:24:47.861Z,13.28
2023-04-18T18:27:51.373Z,13.27
2023-04-18T18:30:54.122Z,13.23
2023-04-18T18:33:56.446Z,13.26
2023-04-18T18:36:58.714Z,13.30
2023-04-18T18:40:04.916Z,13.27
2023-04-18T18:43:07.230Z,13.03
2023-04-18T18:46:09.527Z,13.02
2023-04-18T18:49:11.926Z,13.10
2023-04-18T18:52:14.448Z,13.04
2023-04-18T18:55:16.817Z,13.14
2023-04-18T18:58:19.091Z,13.12
2023-04-18T19:01:21.493Z,13.04
2023-04-18T19:04:24.454Z,12.97
2023-04-18T19:07:27.852Z,12.97
2023-04-18T19:10:31.803Z,13.10
2023-04-18T19:13:34.076Z,13.07
2023-04-18T19:16:36.615Z,12.97
2023-04-18T19:19:39.053Z,12.96
2023-04-18T19:22:41.336Z,12.96
2023-04-18T19:25:44.939Z,12.97
2023-04-18T19:28:47.259Z,12.92
2023-04-18T19:31:49.667Z,12.66
2023-04-18T19:34:52.176Z,12.75
2023-04-18T19:38:01.415Z,12.73
2023-04-18T19:41:03.704Z,12.79
2023-04-18T19:44:05.979Z,12.71
2023-04-18T19:47:08.278Z,12.72
2023-04-18T19:50:11.538Z,12.79
2023-04-18T19:53:15.605Z,12.79
2023-04-18T19:56:18.012Z,12.75
2023-04-18T19:59:20.266Z,12.52
2023-04-18T20:02:22.528Z,12.27
2023-04-18T20:05:24.934Z,12.44
2023-04-18T20:08:27.482Z,12.55
2023-04-18T20:11:29.757Z,12.55
2023-04-18T20:14:32.115Z,12.31
2023-04-18T20:17:34.813Z,12.41
2023-04-18T20:20:37.155Z,12.38
2023-04-18T20:23:42.155Z,12.51
2023-04-18T20:26:44.485Z,12.52
2023-04-18T20:29:47.057Z,12.51
2023-04-18T20:32:49.335Z,12.45
2023-04-18T20:35:51.610Z,12.38
2023-04-18T20:38:53.836Z,12.41
2023-04-18T20:41:57.899Z,12.31
2023-04-18T20:45:00.335Z,12.32
2023-04-18T20:48:02.691Z,12.37
2023-04-18T20:51:05.096Z,12.48
2023-04-18T20:54:07.492Z,12.38
2023-04-18T20:57:09.750Z,12.35
2023-04-18T21:00:13.971Z,12.21
2023-04-18T21:03:16.974Z,12.10
2023-04-18T21:06:22.127Z,12.11
2023-04-18T21:09:24.437Z,12.04
2023-04-18T21:12:27.598Z,11.97
2023-04-18T21:15:29.968Z,11.60
2023-04-18T21:18:32.216Z,11.18
2023-04-18T21:21:34.864Z,11.39
2023-04-18T21:24:37.220Z,11.42
2023-04-18T21:27:39.587Z,11.39
2023-04-18T21:30:41.858Z,11.08
2023-04-18T21:33:44.124Z,10.91
2023-04-18T21:36:46.425Z,10.95
2023-04-18T21:39:48.637Z,11.05
2023-04-18T21:42:53.555Z,11.01
2023-04-18T21:45:55.850Z,11.09
2023-04-18T21:48:58.208Z,11.11
2023-04-18T21:52:00.722Z,11.14
2023-04-18T21:55:04.090Z,11.22
2023-04-18T21:58:06.336Z,11.28
2023-04-18T22:01:08.685Z,11.39
2023-04-18T22:04:12.459Z,11.40
2023-04-18T22:07:19.014Z,11.44
2023-04-18T22:10:21.312Z,11.44
2023-04-18T22:13:24.070Z,11.38
2023-04-18T22:16:26.388Z,11.52
2023-04-18T22:19:29.610Z,11.53
2023-04-18T22:22:31.858Z,11.52
2023-04-18T22:25:34.670Z,11.47
2023-04-18T22:28:37.210Z,11.55
2023-04-18T22:31:39.669Z,11.58
2023-04-18T22:34:41.880Z,11.56
2023-04-18T22:37:44.273Z,11.52
2023-04-18T22:40:46.565Z,11.44
2023-04-18T22:43:48.814Z,11.53
2023-04-18T22:46:54.548Z,11.58
2023-04-18T22:49:56.941Z,11.44
2023-04-18T22:52:59.182Z,11.46
2023-04-18T22:56:01.535Z,11.38
2023-04-18T22:59:03.833Z,11.44
2023-04-18T23:02:06.199Z,11.25
2023-04-18T23:05:09.028Z,11.01
2023-04-18T23:08:12.113Z,11.07
2023-04-18T23:11:14.443Z,11.05
2023-04-18T23:14:17.352Z,11.00
2023-04-18T23:17:19.591Z,11.07
2023-04-18T23:20:22.140Z,11.04
2023-04-18T23:23:24.648Z,11.05
2023-04-18T23:26:26.944Z,11.04
2023-04-18T23:29:29.350Z,10.88
2023-04-18T23:32:31.668Z,10.91
2023-04-18T23:35:34.133Z,10.87
2023-04-18T23:38:37.519Z,10.80
2023-04-18T23:41:39.744Z,10.80
2023-04-18T23:44:42.029Z,10.77
2023-04-18T23:47:44.449Z,10.77
2023-04-18T23:50:52.341Z,10.91
2023-04-18T23:53:54.667Z,10.71
2023-04-18T23:56:57.290Z,10.81
2023-04-18T23:59:59.522Z,10.74
